Norris Observed Data For Previous 48 Hours

Caption
Day and Hour Reservoir Elevation (behind dam)* Tailwater Elevation (below dam)* Average Hourly Discharge*
8/14/2019 2 AM EDT 1,018.27 827.37 8,870
8/14/2019 3 AM EDT 1,018.26 827.48 8,876
8/14/2019 4 AM EDT 1,018.23 827.43 8,875
8/14/2019 5 AM EDT 1,018.20 827.37 8,874
8/14/2019 6 AM EDT 1,018.20 827.44 8,874
8/14/2019 7 AM EDT 1,018.17 827.46 8,871
8/14/2019 8 AM EDT 1,018.15 827.41 8,870
8/14/2019 9 AM EDT 1,018.13 827.38 8,863
8/14/2019 10 AM EDT 1,018.11 827.42 8,868
8/14/2019 11 AM EDT 1,018.11 827.43 8,872
8/14/2019 12 PM EDT 1,018.08 827.43 8,873
8/14/2019 1 PM EDT 1,018.05 827.42 8,881
8/14/2019 2 PM EDT 1,018.05 827.37 8,888
8/14/2019 3 PM EDT 1,018.03 827.35 8,892
8/14/2019 4 PM EDT 1,018.02 827.40 8,883
8/14/2019 5 PM EDT 1,018.00 827.38 8,880
8/14/2019 6 PM EDT 1,017.96 827.36 8,881
8/14/2019 7 PM EDT 1,017.95 827.41 8,881
8/14/2019 8 PM EDT 1,017.92 827.39 8,881
8/14/2019 9 PM EDT 1,017.90 827.44 8,880
8/14/2019 10 PM EDT 1,017.88 827.39 8,882
8/14/2019 11 PM EDT 1,017.87 827.48 8,877
8/15/2019 12 AM EDT 1,017.85 827.34 8,882
8/15/2019 1 AM EDT 1,017.83 827.36 8,880
8/15/2019 2 AM EDT 1,017.81 827.40 8,876
8/15/2019 3 AM EDT 1,017.80 827.38 8,878
8/15/2019 4 AM EDT 1,017.78 827.46 8,877
8/15/2019 5 AM EDT 1,017.76 827.35 8,873
8/15/2019 6 AM EDT 1,017.74 827.39 8,875
8/15/2019 7 AM EDT 1,017.71 827.36 8,849
8/15/2019 8 AM EDT 1,017.69 827.39 8,855
8/15/2019 9 AM EDT 1,017.67 827.38 8,856
8/15/2019 10 AM EDT 1,017.66 827.41 8,852
8/15/2019 11 AM EDT 1,017.63 827.36 8,854
8/15/2019 12 PM EDT 1,017.61 827.42 8,855
8/15/2019 1 PM EDT 1,017.59 827.36 8,854
8/15/2019 2 PM EDT 1,017.57 827.38 8,853
8/15/2019 3 PM EDT 1,017.56 827.39 8,856
8/15/2019 4 PM EDT 1,017.54 827.45 8,856
8/15/2019 5 PM EDT 1,017.52 827.35 8,854
8/15/2019 6 PM EDT 1,017.50 827.44 8,857
8/15/2019 7 PM EDT 1,017.48 827.42 8,857
8/15/2019 8 PM EDT 1,017.45 827.37 8,854
8/15/2019 9 PM EDT 1,017.43 827.41 8,848
8/15/2019 10 PM EDT 1,017.41 827.36 8,855
8/15/2019 11 PM EDT 1,017.40 827.47 8,852
8/16/2019 12 AM EDT 1,017.37 827.47 8,853
8/16/2019 1 AM EDT 1,017.36 827.34 8,854
8/16/2019 2 AM EDT 1,017.34 827.41 8,852
8/16/2019 3 AM EDT 1,017.33 827.45 8,852
8/16/2019 4 AM EDT 1,017.31 827.37 8,842
8/16/2019 5 AM EDT 1,017.28 827.46 8,841
8/16/2019 6 AM EDT 1,017.26 827.45 8,838
8/16/2019 7 AM EDT 1,017.24 827.33 8,839
8/16/2019 8 AM EDT 1,017.22 827.39 8,837
8/16/2019 9 AM EDT 1,017.20 827.44 8,838
8/16/2019 10 AM EDT 1,017.20 825.17 6,046
8/16/2019 11 AM EDT 1,017.17 825.10 4,424
8/16/2019 12 PM EDT 1,017.17 825.02 4,433
8/16/2019 1 PM EDT 1,017.17 825.05 4,431
8/16/2019 2 PM EDT 1,017.15 825.00 4,431
8/16/2019 3 PM EDT 1,017.15 825.08 4,431
8/16/2019 4 PM EDT 1,017.15 825.09 4,431
8/16/2019 5 PM EDT 1,017.13 825.08 4,430
8/16/2019 6 PM EDT 1,017.13 824.96 4,426

Elevations are in feet above sea level. Discharges are in cubic feet per second and are reported at the end of the hour.